Time;durP1;ratioP1;P1;durP2;ratioP2;P2;SDS_P1;SDS_P2;PMS_P1;PMS_P2;Temp;Humidity;BMP_temperature;BMP_pressure;BME280_temperature;BME280_humidity;BME280_pressure;Samples;Min_cycle;Max_cycle;Signal;HPM_P1;HPM_P2
2022/05/03 12:52:47;;;;;;;;;37.00;34.00;;;;;;;;2;234157323;234157323;-72
2022/05/03 13:01:51;;;;;;;;;41.50;34.00;;;;;;;;2;279083386;279083386;-72
2022/05/03 13:10:33;;;;;;;;;29.00;28.50;;;;;;;;2;234071952;234071952;-72
2022/05/03 13:19:34;;;;;;;;;43.00;38.00;;;;;;;;2;279083378;279083378;-73
2022/05/03 13:28:16;;;;;;;;;35.50;33.00;;;;;;;;2;234069991;234069991;-72
2022/05/03 13:46:18;;;;;;;;;18.50;18.50;;;;;;;;2;234068987;234068987;-73
2022/05/03 13:55:18;;;;;;;;;38.50;35.00;;;;;;;;2;279082133;279082133;-73
2022/05/03 14:04:02;;;;;;;;;47.00;37.50;;;;;;;;2;234071323;234071323;-73
2022/05/03 14:13:03;;;;;;;;;41.50;37.00;;;;;;;;2;279083106;279083106;-69
2022/05/03 14:21:48;;;;;;;;;33.00;31.50;;;;;;;;2;234067282;234067282;-71
2022/05/03 14:30:48;;;;;;;;;38.50;35.00;;;;;;;;2;279081760;279081760;-71
2022/05/03 14:39:31;;;;;;;;;44.00;38.00;;;;;;;;2;234069711;234069711;-71
2022/05/03 14:48:31;;;;;;;;;46.00;40.00;;;;;;;;2;279081612;279081612;-72
2022/05/03 15:06:33;;;;;;;;;42.00;37.50;;;;;;;;2;279080464;279080464;-72
2022/05/03 15:15:17;;;;;;;;;50.00;42.50;;;;;;;;2;234066734;234066734;-72
2022/05/03 15:24:36;;;;;;;;;41.50;37.00;;;;;;;;2;279082179;279082179;-71
2022/05/03 15:33:18;;;;;;;;;34.50;32.00;;;;;;;;2;234071131;234071131;-71
2022/05/03 15:42:20;;;;;;;;;47.50;41.00;;;;;;;;2;279086313;279086313;-71
2022/05/03 15:51:03;;;;;;;;;41.00;37.00;;;;;;;;2;234067854;234067854;-72
2022/05/03 16:00:03;;;;;;;;;39.00;35.50;;;;;;;;2;279082329;279082329;-71
2022/05/03 16:08:46;;;;;;;;;40.50;36.00;;;;;;;;2;234067931;234067931;-71
2022/05/03 16:17:46;;;;;;;;;43.00;35.50;;;;;;;;2;279077633;279077633;-71
2022/05/03 16:26:29;;;;;;;;;32.00;30.00;;;;;;;;2;234069954;234069954;-70
2022/05/03 16:35:29;;;;;;;;;37.00;34.00;;;;;;;;2;279078151;279078151;-71
2022/05/03 16:44:12;;;;;;;;;40.50;36.50;;;;;;;;2;234068927;234068927;-71
2022/05/03 16:53:12;;;;;;;;;40.00;35.00;;;;;;;;2;279080723;279080723;-71
2022/05/03 17:01:55;;;;;;;;;53.50;39.00;;;;;;;;2;234069576;234069576;-71
2022/05/03 17:10:55;;;;;;;;;41.50;37.00;;;;;;;;2;279082519;279082519;-71
2022/05/03 17:19:38;;;;;;;;;33.00;31.00;;;;;;;;2;234067879;234067879;-71
2022/05/03 17:28:39;;;;;;;;;29.50;28.50;;;;;;;;2;279080994;279080994;-71
2022/05/03 17:37:21;;;;;;;;;35.00;32.50;;;;;;;;2;234068719;234068719;-72
2022/05/03 17:46:22;;;;;;;;;22.50;22.50;;;;;;;;2;279078550;279078550;-72
2022/05/03 17:55:07;;;;;;;;;25.50;25.50;;;;;;;;2;234069769;234069769;-72
2022/05/03 18:04:07;;;;;;;;;17.50;17.50;;;;;;;;2;279080540;279080540;-72
2022/05/03 18:12:50;;;;;;;;;33.00;31.00;;;;;;;;2;234069518;234069518;-72
2022/05/03 18:21:50;;;;;;;;;19.00;19.00;;;;;;;;2;279081739;279081739;-72
2022/05/03 18:30:33;;;;;;;;;25.00;25.00;;;;;;;;2;234069687;234069687;-72
2022/05/03 18:39:33;;;;;;;;;21.00;21.00;;;;;;;;2;279082760;279082760;-72
2022/05/03 18:48:16;;;;;;;;;21.50;21.50;;;;;;;;2;234068611;234068611;-72
2022/05/03 18:57:16;;;;;;;;;15.50;15.50;;;;;;;;2;279084216;279084216;-72
2022/05/03 19:06:04;;;;;;;;;18.50;18.50;;;;;;;;2;234067771;234067771;-71
2022/05/03 19:15:04;;;;;;;;;19.50;19.50;;;;;;;;2;279078656;279078656;-72
2022/05/03 19:33:07;;;;;;;;;21.50;21.50;;;;;;;;2;279079185;279079185;-72
2022/05/03 19:41:51;;;;;;;;;14.50;14.50;;;;;;;;2;234067844;234067844;-72
2022/05/03 19:50:51;;;;;;;;;18.00;18.00;;;;;;;;2;279081995;279081995;-72
2022/05/03 19:59:34;;;;;;;;;25.00;19.50;;;;;;;;2;234069142;234069142;-72
2022/05/03 20:08:37;;;;;;;;;18.50;18.50;;;;;;;;2;279079961;279079961;-72
2022/05/03 20:17:20;;;;;;;;;18.50;18.50;;;;;;;;2;234068235;234068235;-72
2022/05/03 20:26:21;;;;;;;;;13.50;13.50;;;;;;;;2;279082019;279082019;-73
2022/05/03 20:35:04;;;;;;;;;29.50;18.00;;;;;;;;2;234070508;234070508;-72
2022/05/03 20:44:05;;;;;;;;;25.50;17.50;;;;;;;;2;279080904;279080904;-72
2022/05/03 20:52:48;;;;;;;;;7.00;7.00;;;;;;;;2;234074170;234074170;-73
2022/05/03 21:01:49;;;;;;;;;18.00;18.00;;;;;;;;2;279081615;279081615;-72
2022/05/03 21:10:31;;;;;;;;;28.00;25.50;;;;;;;;2;234068601;234068601;-72
2022/05/03 21:19:32;;;;;;;;;14.00;14.00;;;;;;;;2;279081872;279081872;-72
2022/05/03 21:28:17;;;;;;;;;16.00;14.50;;;;;;;;2;234070556;234070556;-71
2022/05/03 21:37:18;;;;;;;;;13.00;13.00;;;;;;;;2;279079431;279079431;-72
2022/05/03 21:46:01;;;;;;;;;9.50;9.50;;;;;;;;2;234068549;234068549;-73
2022/05/03 21:55:02;;;;;;;;;27.50;15.50;;;;;;;;2;279085466;279085466;-72
2022/05/03 22:03:46;;;;;;;;;11.00;11.00;;;;;;;;2;234069247;234069247;-73
2022/05/03 22:12:47;;;;;;;;;12.00;12.00;;;;;;;;2;279080887;279080887;-73
2022/05/03 22:21:30;;;;;;;;;11.00;11.00;;;;;;;;2;234069641;234069641;-72
2022/05/03 22:30:31;;;;;;;;;12.50;7.50;;;;;;;;2;279085530;279085530;-73
2022/05/03 22:39:13;;;;;;;;;15.50;15.50;;;;;;;;2;234072398;234072398;-73
2022/05/03 22:48:13;;;;;;;;;13.00;13.00;;;;;;;;2;279078292;279078292;-73
2022/05/03 22:56:56;;;;;;;;;14.50;14.50;;;;;;;;2;234071399;234071399;-73
2022/05/03 23:05:56;;;;;;;;;16.50;16.50;;;;;;;;2;279082456;279082456;-73
2022/05/03 23:14:39;;;;;;;;;16.50;16.50;;;;;;;;2;234068938;234068938;-73
2022/05/03 23:23:39;;;;;;;;;16.50;16.50;;;;;;;;2;279084688;279084688;-72
2022/05/03 23:32:24;;;;;;;;;12.50;12.50;;;;;;;;2;234074673;234074673;-73
2022/05/03 23:41:25;;;;;;;;;12.00;12.00;;;;;;;;2;279083829;279083829;-73
2022/05/03 23:50:07;;;;;;;;;12.50;12.50;;;;;;;;2;234068158;234068158;-73
2022/05/03 23:59:08;;;;;;;;;16.00;12.00;;;;;;;;2;279082872;279082872;-73
